createdAt,value
2023-02-22T00:00:40.571Z,100482.75
2023-02-22T00:05:47.004Z,100480.28
2023-02-22T00:10:51.444Z,100482.44
2023-02-22T00:15:54.252Z,100472.81
2023-02-22T00:20:59.904Z,100463.50
2023-02-22T00:26:04.107Z,100466.94
2023-02-22T00:31:09.486Z,100459.00
2023-02-22T00:36:13.620Z,100456.13
2023-02-22T00:41:18.140Z,100454.72
2023-02-22T00:46:21.142Z,100455.19
2023-02-22T00:51:26.714Z,100454.13
2023-02-22T00:56:30.987Z,100446.41
2023-02-22T01:01:34.892Z,100438.59
2023-02-22T01:06:37.845Z,100444.25
2023-02-22T01:11:42.307Z,100440.28
2023-02-22T01:16:45.462Z,100442.41
2023-02-22T01:21:48.956Z,100434.38
2023-02-22T01:26:54.057Z,100442.13
2023-02-22T01:31:57.508Z,100434.84
2023-02-22T01:37:01.436Z,100426.28
2023-02-22T01:42:05.627Z,100415.25
2023-02-22T01:47:09.821Z,100408.16
2023-02-22T01:52:18.453Z,100392.91
2023-02-22T01:57:29.829Z,100387.50
2023-02-22T02:02:33.032Z,100391.97
2023-02-22T02:07:38.440Z,100386.53
2023-02-22T02:12:45.060Z,100380.84
2023-02-22T02:17:49.348Z,100374.28
2023-02-22T02:23:01.865Z,100374.00
2023-02-22T02:28:40.812Z,100376.13
2023-02-22T02:33:50.913Z,100364.88
2023-02-22T02:38:59.059Z,100355.56
2023-02-22T02:44:05.773Z,100346.34
2023-02-22T02:49:18.750Z,100344.63
2023-02-22T02:54:22.852Z,100336.75
2023-02-22T02:59:31.132Z,100323.69
2023-02-22T03:04:54.325Z,100322.16
2023-02-22T03:10:13.213Z,100314.56
2023-02-22T03:15:29.592Z,100313.59
2023-02-22T03:20:43.955Z,100323.03
2023-02-22T03:25:52.299Z,100305.09
2023-02-22T03:31:00.912Z,100304.00
2023-02-22T03:36:13.003Z,100307.59
2023-02-22T03:41:19.778Z,100304.94
2023-02-22T03:46:24.674Z,100306.84
2023-02-22T03:51:29.159Z,100298.19
2023-02-22T03:56:47.109Z,100292.19
2023-02-22T04:01:51.090Z,100295.06
2023-02-22T04:06:56.107Z,100297.91
2023-02-22T04:11:59.528Z,100298.47
2023-02-22T04:17:03.616Z,100295.72
2023-02-22T04:22:08.673Z,100296.75
2023-02-22T04:27:11.778Z,100294.38
2023-02-22T04:32:16.751Z,100287.13
2023-02-22T04:37:21.179Z,100293.44
2023-02-22T04:42:24.354Z,100292.66
2023-02-22T04:47:28.793Z,100298.28
2023-02-22T04:52:33.011Z,100290.47
2023-02-22T04:57:36.300Z,100287.03
2023-02-22T05:02:39.979Z,100280.13
2023-02-22T05:07:44.218Z,100278.50
2023-02-22T05:12:47.401Z,100265.19
2023-02-22T05:17:50.580Z,100267.72
2023-02-22T05:22:54.699Z,100257.19
2023-02-22T05:27:59.003Z,100262.13
2023-02-22T05:33:02.346Z,100256.59
2023-02-22T05:38:07.276Z,100247.56
2023-02-22T05:43:10.567Z,100244.22
2023-02-22T05:48:13.546Z,100239.94
2023-02-22T05:53:17.791Z,100239.06
2023-02-22T05:58:20.568Z,100243.53
2023-02-22T06:03:23.328Z,100237.75
2023-02-22T06:08:27.457Z,100238.31
2023-02-22T06:13:30.931Z,100231.81
2023-02-22T06:18:33.863Z,100236.50
2023-02-22T06:23:38.008Z,100228.09
2023-02-22T06:28:40.725Z,100227.44
2023-02-22T06:33:43.474Z,100225.06
2023-02-22T06:38:47.558Z,100236.50
2023-02-22T06:43:50.322Z,100229.63
2023-02-22T06:48:53.064Z,100237.22
2023-02-22T06:53:57.294Z,100229.59
2023-02-22T06:59:02.852Z,100237.06
2023-02-22T07:04:05.710Z,100238.97
2023-02-22T07:09:10.387Z,100231.97
2023-02-22T07:14:13.095Z,100238.50
2023-02-22T07:19:15.913Z,100236.22
2023-02-22T07:24:20.014Z,100240.63
2023-02-22T07:29:23.506Z,100240.31
2023-02-22T07:34:26.297Z,100238.06
2023-02-22T07:39:30.453Z,100240.44
2023-02-22T07:44:33.193Z,100242.44
2023-02-22T07:49:35.952Z,100244.22
2023-02-22T07:54:40.065Z,100245.38
2023-02-22T07:59:42.818Z,100236.13
2023-02-22T08:04:45.543Z,100234.03
2023-02-22T08:09:49.690Z,100238.09
2023-02-22T08:14:52.567Z,100231.69
2023-02-22T08:19:55.389Z,100232.31
2023-02-22T08:24:59.588Z,100232.88
2023-02-22T08:30:02.414Z,100231.53
2023-02-22T08:35:05.877Z,100223.09
2023-02-22T08:40:11.875Z,100224.97
2023-02-22T08:45:16.791Z,100219.75
2023-02-22T08:50:21.832Z,100210.63
2023-02-22T08:55:28.161Z,100207.59
2023-02-22T09:00:33.081Z,100202.75
2023-02-22T09:05:36.346Z,100195.09
2023-02-22T09:16:11.538Z,100193.94
2023-02-22T09:21:14.714Z,100181.44
2023-02-22T09:26:17.576Z,100183.59
2023-02-22T09:31:22.261Z,100181.63
2023-02-22T09:36:26.216Z,100168.31
2023-02-22T09:41:36.507Z,100172.78
2023-02-22T09:46:45.666Z,100162.28
2023-02-22T09:51:53.223Z,100161.72
2023-02-22T09:56:59.273Z,100155.63
2023-02-22T10:02:14.307Z,100160.03
2023-02-22T10:07:21.327Z,100162.69
2023-02-22T10:12:35.787Z,100147.16
2023-02-22T10:17:50.246Z,100137.63
2023-02-22T10:23:12.068Z,100133.00
2023-02-22T10:28:20.492Z,100131.22
2023-02-22T10:33:28.079Z,100134.28
2023-02-22T10:38:32.987Z,100124.59
2023-02-22T10:43:41.139Z,100118.59
2023-02-22T10:48:50.820Z,100116.41
2023-02-22T10:54:20.739Z,100118.34
2023-02-22T10:59:32.782Z,100108.50
2023-02-22T11:04:49.577Z,100100.25
2023-02-22T11:09:55.194Z,100093.97
2023-02-22T11:14:58.111Z,100103.31
2023-02-22T11:20:02.388Z,100092.84
2023-02-22T11:25:07.762Z,100090.06
2023-02-22T11:30:24.092Z,100090.50
2023-02-22T11:35:39.455Z,100084.00
2023-02-22T11:40:42.397Z,100073.19
2023-02-22T11:46:02.596Z,100066.09
2023-02-22T11:51:27.879Z,100059.16
2023-02-22T11:56:37.972Z,100050.53
2023-02-22T12:01:47.785Z,100046.69
2023-02-22T12:07:03.975Z,100045.63
2023-02-22T12:12:17.307Z,100046.94
2023-02-22T12:17:34.964Z,100031.97
2023-02-22T12:22:45.365Z,100030.69
2023-02-22T12:27:53.291Z,100018.72
2023-02-22T12:32:59.679Z,100020.25
2023-02-22T12:38:12.171Z,100010.31
2023-02-22T12:43:22.447Z,100016.38
2023-02-22T12:48:34.219Z,100005.13
2023-02-22T12:53:42.144Z,99999.16
2023-02-22T12:58:53.133Z,99993.56
2023-02-22T13:03:56.798Z,99994.22
2023-02-22T13:09:15.386Z,99987.03
2023-02-22T13:14:34.429Z,99993.13
2023-02-22T13:19:44.048Z,99983.31
2023-02-22T13:25:03.536Z,99974.75
2023-02-22T13:30:14.553Z,99976.13
2023-02-22T13:35:35.087Z,99973.25
2023-02-22T13:40:55.304Z,99976.41
2023-02-22T13:46:14.194Z,99971.06
2023-02-22T13:51:35.425Z,99965.66
2023-02-22T13:56:43.793Z,99969.56
2023-02-22T14:01:48.826Z,99964.97
2023-02-22T14:06:51.828Z,99964.97
2023-02-22T14:11:56.873Z,99966.09
2023-02-22T14:17:25.126Z,99961.38
2023-02-22T14:22:29.593Z,99951.91
2023-02-22T14:27:42.455Z,99953.63
2023-02-22T14:32:48.947Z,99959.41
2023-02-22T14:37:56.469Z,99955.69
2023-02-22T14:43:06.092Z,99957.06
2023-02-22T14:48:20.299Z,99954.25
2023-02-22T14:53:28.322Z,99947.78
2023-02-22T14:58:38.782Z,99941.75
2023-02-22T15:03:41.983Z,99931.38
2023-02-22T15:08:49.145Z,99936.69
2023-02-22T15:13:57.787Z,99942.88
2023-02-22T15:19:06.655Z,99937.56
2023-02-22T15:24:12.205Z,99930.31
2023-02-22T15:29:20.116Z,99930.75
2023-02-22T15:34:28.025Z,99925.75
2023-02-22T15:39:34.469Z,99924.97
2023-02-22T15:44:41.675Z,99923.94
2023-02-22T15:49:44.625Z,99923.31
2023-02-22T15:54:50.330Z,99935.03
2023-02-22T15:59:58.975Z,99932.00
2023-02-22T16:05:06.928Z,99935.50
2023-02-22T16:10:25.360Z,99940.81
2023-02-22T16:15:33.415Z,99934.06
2023-02-22T16:20:36.624Z,99933.03
2023-02-22T16:25:39.622Z,99934.69
2023-02-22T16:30:43.829Z,99935.75
2023-02-22T16:35:52.032Z,99939.16
2023-02-22T16:40:57.975Z,99942.63
2023-02-22T16:46:02.944Z,99945.75
2023-02-22T16:51:14.921Z,99950.72
2023-02-22T16:56:21.036Z,99951.28
2023-02-22T17:01:25.229Z,99949.59
2023-02-22T17:06:29.145Z,99951.44
2023-02-22T17:11:32.035Z,99970.66
2023-02-22T17:16:36.200Z,99966.56
2023-02-22T17:21:40.184Z,99970.50
2023-02-22T17:26:43.017Z,99962.28
2023-02-22T17:31:48.820Z,99957.84
2023-02-22T17:36:51.630Z,99972.56
2023-02-22T17:41:57.561Z,99973.53
2023-02-22T17:47:01.702Z,99978.78
2023-02-22T17:52:06.250Z,99970.84
2023-02-22T17:57:09.058Z,99978.91
2023-02-22T18:02:13.234Z,99974.81
2023-02-22T18:07:19.680Z,99976.94
2023-02-22T18:12:22.438Z,99973.75
2023-02-22T18:17:26.700Z,99970.88
2023-02-22T18:22:29.513Z,99979.78
2023-02-22T18:27:32.329Z,99977.25
2023-02-22T18:32:36.489Z,99981.50
2023-02-22T18:37:39.894Z,99984.03
2023-02-22T18:42:42.640Z,99976.72
2023-02-22T18:47:46.760Z,99984.88
2023-02-22T18:52:49.536Z,99984.59
2023-02-22T18:57:52.287Z,99977.81
2023-02-22T19:02:57.710Z,99986.72
2023-02-22T19:08:00.874Z,99983.03
2023-02-22T19:13:03.659Z,99983.19
2023-02-22T19:18:07.809Z,99984.31
2023-02-22T19:23:11.119Z,99987.00
2023-02-22T19:28:15.560Z,99984.28
2023-02-22T19:33:19.718Z,99972.25
2023-02-22T19:38:22.464Z,99982.34
2023-02-22T19:43:25.217Z,99980.06
2023-02-22T19:48:29.345Z,99969.72
2023-02-22T19:53:32.128Z,99974.44
2023-02-22T19:58:36.654Z,99978.66
2023-02-22T20:03:42.087Z,99988.06
2023-02-22T20:08:44.997Z,99984.19
2023-02-22T20:13:47.970Z,99986.41
2023-02-22T20:18:52.418Z,99988.78
2023-02-22T20:23:57.128Z,99994.63
2023-02-22T20:29:00.689Z,99986.13
2023-02-22T20:34:06.262Z,99986.50
2023-02-22T20:39:13.206Z,99991.91
2023-02-22T20:44:17.894Z,99996.91
2023-02-22T20:49:22.167Z,99994.69
2023-02-22T20:54:24.951Z,99993.75
2023-02-22T20:59:28.997Z,99994.50
2023-02-22T21:04:33.993Z,99996.63
2023-02-22T21:09:38.250Z,100004.59
2023-02-22T21:14:43.623Z,99997.75
2023-02-22T21:19:47.947Z,100006.63
2023-02-22T21:24:50.715Z,100007.22
2023-02-22T21:29:57.711Z,100012.25
2023-02-22T21:35:01.930Z,100002.97
2023-02-22T21:40:10.264Z,100017.72
2023-02-22T21:45:13.620Z,100016.41
2023-02-22T21:50:20.231Z,100020.84
2023-02-22T21:55:23.603Z,100011.34
2023-02-22T22:00:30.849Z,100014.16
2023-02-22T22:05:35.636Z,100014.75
2023-02-22T22:10:39.106Z,100019.38
2023-02-22T22:15:43.005Z,100019.06
2023-02-22T22:20:51.562Z,100014.34
2023-02-22T22:26:02.990Z,100023.59
2023-02-22T22:31:06.102Z,100017.66
2023-02-22T22:36:11.768Z,100025.69
2023-02-22T22:41:16.153Z,100025.19
2023-02-22T22:46:19.583Z,100038.34
2023-02-22T22:51:23.743Z,100031.75
2023-02-22T22:56:28.990Z,100037.94
2023-02-22T23:01:34.271Z,100038.84
2023-02-22T23:06:41.278Z,100052.22
2023-02-22T23:11:45.979Z,100042.44
2023-02-22T23:16:49.402Z,100045.28
2023-02-22T23:21:55.883Z,100051.25
2023-02-22T23:27:00.095Z,100059.16
2023-02-22T23:32:05.625Z,100066.28
2023-02-22T23:37:10.543Z,100063.88
2023-02-22T23:42:16.678Z,100071.81
2023-02-22T23:47:19.690Z,100064.88
2023-02-22T23:52:24.815Z,100078.94
2023-02-22T23:57:27.592Z,100077.56
